Sharm El Sheikh, Egypt

7:57 AM EET on August 23, 2014 (GMT +0200)
Sharm El Sheikh International | Change Station
CLOSE
Current Station
Airport
Location: Sharm El Sheikh,
Elevation: 164 ft
Nearby Weather Stations

Elev 164 ft 27.98 °N, 34.39 °E | Updated 57 minutes ago

Clear
Clear
88 °F
Feels Like 100 °F
N
23
Wind Variable Wind from North

Today
High -- | Low -- °F
--% Chance of Precip.
Yesterday
High -- | Low -- °F
Precip. -- in
5:16 AM 6:13 PM
Waning Crescent, 5% visible
Pressure 29.65 in
Visibility -9999.0 miles
Clouds
Heat Index 100 °F
Dew Point 77 °F
Humidity 70%
Rainfall 0.00 in
Snow Depth Not available.
UV Not available.
Pollen Not available.
Air Quality Not available.
Flu Activity Not available.
METAR HESH 230500Z 36020KT CAVOK 31/25 Q1004 NOSIG

More Conditions Fewer Conditions

Pressure 29.65 in
Visibility -9999.0 miles
Clouds
Heat Index 100 °F
Dew Point 77 °F
Humidity 70%
Rainfall 0.00 in
Snow Depth Not available.
UV Not available.
Pollen Not available.
Air Quality Not available.
Flu Activity Not available.
METAR HESH 230500Z 36020KT CAVOK 31/25 Q1004 NOSIG

More Conditions Fewer Conditions

10-Day Weather Forecast

Almanac

Astronomy

Aug. 23, 2014 Rise Set
Actual Time 5:16 AM EET 6:13 PM EET
Civil Twilight 4:52 AM EET 6:37 PM EET
Nautical Twilight 4:23 AM EET 7:06 PM EET
Astronomical Twilight 3:54 AM EET 7:35 PM EET
Moon 3:18 AM EET 4:43 PM EET
Length of Visible Light 13h 45m
Length of Day
12h 56m
Tomorrow will be 1m 32s shorter.
Waning Crescent, 5% of the Moon is Illuminated
Today
Waning Crescent
Aug 25
New
Sep 2
First Quarter
Sep 8
Full
Sep 15
Last Quarter

Yesterday's Extremes

Country Highs Country Lows

Community

WunderPhotos

Upload Photos

1,746,372 photos uploaded!

WunderBlogs® & News

By Dr. Jeff Masters
Director of Meteorology, Weather Underground
By Kari Strenfel
Meteorologist, Weather Underground
By Christopher C. Burt
Weather Historian, Weather Underground
August 23, 2014
August 23, 2014
August 22, 2014

Nearby

Snow Depth

Not available.

Earthquake Activity

City Distance Mag. Time & Date
No recent earthquake activity has been reported nearby.
Minimum magnitude displayed is 2.5.

Coastal Water Temperatures

Place Temperature
No Stations Reporting

Nearby Weather Stations